Time;durP1;ratioP1;P1;durP2;ratioP2;P2;SDS_P1;SDS_P2;PMS_P1;PMS_P2;Temp;Humidity;BMP_temperature;BMP_pressure;BME280_temperature;BME280_humidity;BME280_pressure;Samples;Min_cycle;Max_cycle;Signal;HPM_P1;HPM_P2
2022/04/02 00:01:15;;;;;;;22.60;17.60;;;;;;;-0.01;100.00;97418.84;105448;1268;70378;-74
2022/04/02 00:03:42;;;;;;;18.70;15.50;;;;;;;0.01;100.00;97419.14;105554;1269;74352;-73
2022/04/02 00:06:08;;;;;;;20.90;16.00;;;;;;;0.02;100.00;97415.98;105742;1268;61311;-74
2022/04/02 00:08:35;;;;;;;18.70;16.30;;;;;;;0.02;100.00;97414.89;105676;1271;61272;-73
2022/04/02 00:11:02;;;;;;;18.60;16.60;;;;;;;0.02;100.00;97414.92;106049;1268;74317;-74
2022/04/02 00:13:31;;;;;;;21.00;17.80;;;;;;;0.03;100.00;97413.48;106148;1268;69340;-73
2022/04/02 00:15:59;;;;;;;17.90;15.90;;;;;;;0.03;100.00;97413.27;106452;1268;72410;-74
2022/04/02 00:18:26;;;;;;;20.00;17.30;;;;;;;0.04;100.00;97412.71;108462;1266;59801;-74
2022/04/02 00:20:53;;;;;;;18.30;16.40;;;;;;;0.04;100.00;97416.58;108411;1268;59041;-73
2022/04/02 00:26:10;;;;;;;19.10;16.40;;;;;;;0.06;100.00;97412.42;108457;1268;70416;-74
2022/04/02 00:28:39;;;;;;;20.40;18.20;;;;;;;0.07;100.00;97412.55;106856;1268;74531;-73
2022/04/02 00:31:09;;;;;;;19.30;17.20;;;;;;;0.09;100.00;97415.26;105158;1268;61279;-71
2022/04/02 00:33:37;;;;;;;17.60;15.80;;;;;;;0.10;100.00;97417.13;105392;1269;61369;-73
2022/04/02 00:36:04;;;;;;;20.80;17.30;;;;;;;0.08;100.00;97415.99;105401;1268;73927;-74
2022/04/02 00:38:32;;;;;;;25.80;20.50;;;;;;;0.07;100.00;97418.64;105399;1269;69114;-74
2022/04/02 00:40:59;;;;;;;22.50;18.00;;;;;;;0.08;100.00;97420.89;105391;1268;73365;-75
2022/04/02 00:44:17;;;;;;;20.90;18.30;;;;;;;0.08;100.00;97419.34;105318;1271;61316;-73
2022/04/02 00:46:44;;;;;;;26.30;19.90;;;;;;;0.07;100.00;97421.44;104088;1283;61279;-73
2022/04/02 00:49:12;;;;;;;24.80;19.60;;;;;;;0.07;100.00;97422.71;104125;1282;73846;-73
2022/04/02 00:51:43;;;;;;;26.10;19.90;;;;;;;0.05;100.00;97421.89;104002;1283;69587;-73
2022/04/02 00:54:14;;;;;;;27.60;21.40;;;;;;;0.03;100.00;97422.36;104103;1282;74428;-73
2022/04/02 00:56:42;;;;;;;25.20;22.60;;;;;;;0.03;100.00;97425.50;103726;1285;233336;-74
2022/04/02 00:59:09;;;;;;;28.10;22.20;;;;;;;0.02;100.00;97424.30;104039;1284;61379;-72
2022/04/02 01:01:39;;;;;;;27.20;24.20;;;;;;;0.01;100.00;97425.23;103998;1285;76084;-70
2022/04/02 01:04:09;;;;;;;28.50;24.60;;;;;;;0.00;100.00;97428.23;104051;1283;70374;-72
2022/04/02 01:06:37;;;;;;;27.30;23.80;;;;;;;-0.02;100.00;97430.07;104037;1282;73432;-73
2022/04/02 01:09:03;;;;;;;30.20;26.10;;;;;;;-0.03;100.00;97429.96;104184;1283;61344;-73
2022/04/02 01:11:41;;;;;;;29.70;24.80;;;;;;;-0.02;100.00;97433.09;104027;1283;61283;-73
2022/04/02 01:14:10;;;;;;;28.30;25.10;;;;;;;-0.03;100.00;97429.27;104103;1284;75636;-74
2022/04/02 01:16:38;;;;;;;28.00;24.60;;;;;;;-0.02;100.00;97433.96;104107;1284;69923;-73
2022/04/02 01:19:06;;;;;;;28.50;23.30;;;;;;;-0.02;100.00;97433.61;104027;1283;73465;-72
2022/04/02 01:21:34;;;;;;;28.50;23.10;;;;;;;-0.04;100.00;97433.51;103993;1284;61545;-73
2022/04/02 01:24:01;;;;;;;28.30;22.50;;;;;;;-0.05;100.00;97437.05;104712;1269;60995;-73
2022/04/02 01:26:28;;;;;;;24.20;21.40;;;;;;;-0.05;100.00;97438.83;105034;1271;76421;-72
2022/04/02 01:28:59;;;;;;;22.30;19.90;;;;;;;-0.06;100.00;97439.20;105280;1269;70400;-73
2022/04/02 01:31:27;;;;;;;26.40;23.50;;;;;;;-0.07;100.00;97437.70;105076;1272;71532;-72
2022/04/02 01:33:55;;;;;;;24.20;21.70;;;;;;;-0.07;100.00;97438.41;105006;1271;61426;-73
2022/04/02 01:36:22;;;;;;;28.60;23.80;;;;;;;-0.08;100.00;97439.12;105477;1271;61243;-73
2022/04/02 01:38:50;;;;;;;28.90;24.30;;;;;;;-0.08;100.00;97433.73;105108;1271;74328;-73
2022/04/02 01:41:17;;;;;;;27.10;22.40;;;;;;;-0.08;100.00;97435.13;105286;1269;70441;-72
2022/04/02 01:43:44;;;;;;;25.60;22.90;;;;;;;-0.09;100.00;97430.95;105223;1270;74467;-72
2022/04/02 01:46:12;;;;;;;25.50;21.90;;;;;;;-0.08;100.00;97435.83;105248;1269;61350;-72
2022/04/02 01:48:39;;;;;;;26.90;24.00;;;;;;;-0.09;100.00;97438.48;105502;1268;61137;-71
2022/04/02 01:51:06;;;;;;;24.90;21.90;;;;;;;-0.09;100.00;97441.65;105249;1269;75336;-72
2022/04/02 01:53:33;;;;;;;25.50;22.40;;;;;;;-0.10;100.00;97444.64;105254;1271;68291;-72
2022/04/02 01:56:00;;;;;;;23.30;20.90;;;;;;;-0.10;100.00;97447.08;105244;1269;74558;-73
2022/04/02 01:58:27;;;;;;;25.40;22.40;;;;;;;-0.09;100.00;97448.61;105253;1269;61447;-72
2022/04/02 02:00:54;;;;;;;25.90;22.30;;;;;;;-0.09;100.00;97451.71;105237;1271;61586;-72
2022/04/02 02:03:21;;;;;;;24.60;22.20;;;;;;;-0.09;100.00;97452.27;105349;1269;75169;-73
2022/04/02 02:05:48;;;;;;;23.40;21.00;;;;;;;-0.09;100.00;97456.30;105254;1268;70469;-72
2022/04/02 02:08:14;;;;;;;28.20;23.50;;;;;;;-0.09;100.00;97456.48;105251;1269;73377;-73
2022/04/02 02:10:41;;;;;;;24.60;22.00;;;;;;;-0.09;100.00;97456.83;105237;1268;61304;-71
2022/04/02 02:13:07;;;;;;;23.90;21.20;;;;;;;-0.09;100.00;97461.71;105266;1269;61926;-73
2022/04/02 02:15:34;;;;;;;25.20;21.90;;;;;;;-0.10;100.00;97461.05;105293;1268;75318;-73
2022/04/02 02:18:01;;;;;;;26.60;20.80;;;;;;;-0.11;100.00;97461.63;105280;1269;70438;-73
2022/04/02 02:20:28;;;;;;;25.50;21.30;;;;;;;-0.12;100.00;97463.77;105252;1268;73987;-73
2022/04/02 02:22:54;;;;;;;24.00;21.10;;;;;;;-0.13;100.00;97461.91;105216;1271;61269;-73
2022/04/02 02:25:21;;;;;;;29.90;22.60;;;;;;;-0.12;100.00;97469.89;105293;1269;61393;-72
2022/04/02 02:27:47;;;;;;;27.40;23.10;;;;;;;-0.13;100.00;97471.83;105278;1271;76631;-72
2022/04/02 02:30:16;;;;;;;27.00;24.30;;;;;;;-0.11;100.00;97472.46;105268;1271;70733;-72
2022/04/02 02:32:45;;;;;;;25.60;22.40;;;;;;;-0.10;100.00;97472.76;105254;1271;72882;-73
2022/04/02 02:38:10;;;;;;;26.10;22.60;;;;;;;-0.11;100.00;97468.95;105247;1268;61354;-71
2022/04/02 02:40:39;;;;;;;23.60;21.20;;;;;;;-0.11;100.00;97464.74;105351;1268;75863;-73
2022/04/02 02:43:07;;;;;;;30.40;22.30;;;;;;;-0.12;100.00;97465.20;105271;1268;70408;-72
2022/04/02 02:45:35;;;;;;;26.50;22.90;;;;;;;-0.14;100.00;97463.84;105258;1269;74343;-73
2022/04/02 02:48:02;;;;;;;26.50;22.30;;;;;;;-0.13;100.00;97462.09;105137;1271;61506;-73
2022/04/02 02:50:29;;;;;;;23.90;21.30;;;;;;;-0.13;100.00;97461.02;105077;1271;62032;-73
2022/04/02 02:52:56;;;;;;;27.40;22.50;;;;;;;-0.13;100.00;97465.92;105260;1269;75790;-73
2022/04/02 02:55:22;;;;;;;24.30;21.60;;;;;;;-0.14;100.00;97466.82;104993;1271;70400;-73
2022/04/02 02:57:49;;;;;;;23.80;21.20;;;;;;;-0.14;100.00;97469.27;105178;1271;74874;-72
2022/04/02 03:00:17;;;;;;;24.30;21.70;;;;;;;-0.14;100.00;97471.21;105240;1268;61419;-73
2022/04/02 03:02:43;;;;;;;25.40;22.60;;;;;;;-0.15;100.00;97469.69;105270;1271;61634;-72
2022/04/02 03:05:13;;;;;;;27.20;23.20;;;;;;;-0.16;100.00;97472.33;105255;1271;75248;-73
2022/04/02 03:07:50;;;;;;;;;;;;;;;-0.16;100.00;97476.70;105416;1271;69760;-73
2022/04/02 03:10:19;;;;;;;30.50;25.10;;;;;;;-0.17;100.00;97476.26;105266;1268;73443;-74
2022/04/02 03:12:47;;;;;;;25.60;22.60;;;;;;;-0.18;100.00;97473.66;105313;1271;61258;-73
2022/04/02 03:15:18;;;;;;;25.60;22.80;;;;;;;-0.20;100.00;97470.79;105437;1270;61288;-72
2022/04/02 03:17:46;;;;;;;29.50;24.40;;;;;;;-0.22;100.00;97476.63;105202;1271;76421;-72
2022/04/02 03:20:17;;;;;;;28.60;24.50;;;;;;;-0.23;100.00;97473.20;105307;1271;70419;-73
2022/04/02 03:22:45;;;;;;;24.80;22.20;;;;;;;-0.24;100.00;97473.94;105260;1271;73353;-73
2022/04/02 03:25:17;;;;;;;26.40;23.30;;;;;;;-0.25;100.00;97472.77;105471;1270;61288;-74
2022/04/02 03:27:46;;;;;;;23.70;21.10;;;;;;;-0.27;100.00;97470.05;105298;1270;61262;-73
2022/04/02 03:30:15;;;;;;;20.70;18.60;;;;;;;-0.28;100.00;97472.75;105321;1270;76652;-72
2022/04/02 03:32:42;;;;;;;21.60;18.80;;;;;;;-0.29;100.00;97475.59;105203;1271;68822;-74
2022/04/02 03:35:09;;;;;;;21.80;19.10;;;;;;;-0.31;100.00;97474.64;105177;1271;72856;-73
2022/04/02 03:37:37;;;;;;;21.50;19.30;;;;;;;-0.32;100.00;97476.08;105232;1271;61378;-73
2022/04/02 03:40:09;;;;;;;19.90;17.80;;;;;;;-0.32;100.00;97480.61;105272;1268;61344;-73
2022/04/02 03:42:38;;;;;;;21.10;18.40;;;;;;;-0.33;100.00;97479.97;105303;1270;75288;-73
2022/04/02 03:45:06;;;;;;;20.80;18.60;;;;;;;-0.35;100.00;97486.67;105301;1271;70262;-73
2022/04/02 03:47:33;;;;;;;21.20;18.10;;;;;;;-0.36;100.00;97486.23;105046;1271;71972;-73
2022/04/02 03:50:00;;;;;;;19.80;17.80;;;;;;;-0.38;100.00;97488.56;105244;1269;61253;-72
2022/04/02 03:52:27;;;;;;;19.60;17.60;;;;;;;-0.39;100.00;97489.99;105248;1271;62276;-73
2022/04/02 03:54:54;;;;;;;20.50;18.30;;;;;;;-0.40;100.00;97491.44;105287;1268;75170;-72
2022/04/02 03:57:21;;;;;;;18.80;16.90;;;;;;;-0.38;100.00;97494.52;105362;1271;69296;-72
2022/04/02 03:59:48;;;;;;;19.50;17.50;;;;;;;-0.39;100.00;97495.92;105268;1269;73396;-73
2022/04/02 04:02:15;;;;;;;20.10;17.70;;;;;;;-0.39;100.00;97498.05;105214;1270;61284;-73
2022/04/02 04:04:42;;;;;;;19.40;16.90;;;;;;;-0.40;100.00;97499.83;105301;1269;61342;-73
2022/04/02 04:07:09;;;;;;;19.40;17.10;;;;;;;-0.40;100.00;97504.74;105296;1271;75343;-73
2022/04/02 04:09:40;;;;;;;20.10;17.00;;;;;;;-0.41;100.00;97503.90;105271;1269;69432;-73
2022/04/02 04:12:08;;;;;;;17.60;15.80;;;;;;;-0.41;100.00;97510.19;105416;1268;73318;-72
2022/04/02 04:14:35;;;;;;;19.70;17.70;;;;;;;-0.41;100.00;97508.28;105312;1270;61387;-72
2022/04/02 04:17:01;;;;;;;20.30;18.10;;;;;;;-0.41;100.00;97509.15;105026;1271;61176;-73
2022/04/02 04:19:29;;;;;;;19.20;17.30;;;;;;;-0.42;100.00;97511.44;105320;1268;76323;-73
2022/04/02 04:21:56;;;;;;;22.20;19.50;;;;;;;-0.41;100.00;97516.61;105071;1268;70555;-73
2022/04/02 04:24:22;;;;;;;25.00;21.40;;;;;;;-0.40;100.00;97517.62;103803;1269;1016310;-72
2022/04/02 04:26:49;;;;;;;28.70;22.80;;;;;;;-0.38;100.00;97518.23;105078;1271;61404;-72
2022/04/02 04:29:16;;;;;;;21.10;18.90;;;;;;;-0.36;100.00;97519.91;105257;1269;62357;-72
2022/04/02 04:31:43;;;;;;;18.60;16.70;;;;;;;-0.36;100.00;97523.20;103915;1269;1003884;-73
2022/04/02 04:34:09;;;;;;;23.30;20.00;;;;;;;-0.36;100.00;97523.76;105288;1269;61137;-72
2022/04/02 04:36:36;;;;;;;22.30;17.90;;;;;;;-0.36;100.00;97519.35;105244;1268;61253;-72
2022/04/02 04:39:05;;;;;;;22.30;19.90;;;;;;;-0.33;100.00;97520.28;105027;1271;61278;-74
2022/04/02 04:41:32;;;;;;;25.00;20.90;;;;;;;-0.32;100.00;97523.54;105150;1271;61336;-73
2022/04/02 04:43:59;;;;;;;24.70;22.10;;;;;;;-0.33;100.00;97521.98;104978;1271;76401;-73
2022/04/02 04:46:26;;;;;;;25.60;21.80;;;;;;;-0.32;100.00;97523.69;105060;1271;69911;-72
2022/04/02 04:48:52;;;;;;;23.30;20.70;;;;;;;-0.32;100.00;97526.12;105215;1271;73399;-73
2022/04/02 04:51:23;;;;;;;28.00;22.20;;;;;;;-0.31;100.00;97528.73;105193;1271;61301;-73
2022/04/02 04:53:50;;;;;;;25.70;22.40;;;;;;;-0.31;100.00;97527.86;105245;1270;61581;-73
2022/04/02 04:56:17;;;;;;;25.90;22.70;;;;;;;-0.30;100.00;97532.34;104297;1271;1016116;-73
2022/04/02 04:58:44;;;;;;;27.30;22.30;;;;;;;-0.30;100.00;97534.77;105076;1271;69688;-73
2022/04/02 05:01:12;;;;;;;25.30;21.60;;;;;;;-0.29;100.00;97536.48;105057;1271;74537;-74
2022/04/02 05:03:40;;;;;;;25.80;23.10;;;;;;;-0.30;100.00;97539.65;105284;1271;61301;-73
2022/04/02 05:06:12;;;;;;;24.20;21.50;;;;;;;-0.29;100.00;97536.29;105236;1271;61502;-73
2022/04/02 05:08:39;;;;;;;22.80;20.20;;;;;;;-0.29;100.00;97542.41;105230;1271;75664;-73
2022/04/02 05:11:09;;;;;;;25.80;22.70;;;;;;;-0.29;100.00;97543.46;105000;1271;69464;-72
2022/04/02 05:13:39;;;;;;;24.60;20.20;;;;;;;-0.30;100.00;97542.10;105288;1271;73887;-73
2022/04/02 05:16:06;;;;;;;24.80;22.20;;;;;;;-0.28;100.00;97546.73;105482;1271;61386;-73
2022/04/02 05:18:33;;;;;;;26.60;22.30;;;;;;;-0.27;100.00;97540.41;105255;1271;61872;-73
2022/04/02 05:21:02;;;;;;;23.30;20.60;;;;;;;-0.27;100.00;97541.94;105124;1271;75497;-72
2022/04/02 05:23:29;;;;;;;24.20;21.10;;;;;;;-0.25;100.00;97537.66;105230;1271;70747;-72
2022/04/02 05:25:56;;;;;;;24.00;20.80;;;;;;;-0.24;100.00;97537.98;105219;1271;74583;-73
2022/04/02 05:28:22;;;;;;;23.00;20.60;;;;;;;-0.21;100.00;97540.33;105101;1271;61281;-73
2022/04/02 05:30:49;;;;;;;21.10;18.60;;;;;;;-0.20;100.00;97540.11;105007;1271;61317;-72
2022/04/02 05:33:16;;;;;;;25.00;21.00;;;;;;;-0.21;100.00;97543.45;105246;1271;76435;-73
2022/04/02 05:35:42;;;;;;;23.20;20.70;;;;;;;-0.20;100.00;97543.94;105248;1271;69227;-72
2022/04/02 05:38:09;;;;;;;19.70;17.70;;;;;;;-0.19;100.00;97549.45;105145;1271;72917;-73
2022/04/02 05:40:38;;;;;;;21.70;18.90;;;;;;;-0.16;100.00;97550.55;105251;1271;61294;-74
2022/04/02 05:43:06;;;;;;;20.20;18.20;;;;;;;-0.13;100.00;97556.52;105299;1271;61357;-72
2022/04/02 05:45:33;;;;;;;21.70;19.50;;;;;;;-0.13;100.00;97554.59;105321;1271;74407;-73
2022/04/02 05:48:00;;;;;;;20.50;17.00;;;;;;;-0.14;100.00;97556.01;105262;1271;70397;-72
2022/04/02 05:50:28;;;;;;;20.60;18.40;;;;;;;-0.13;100.00;97558.10;105363;1271;74479;-72
2022/04/02 05:52:54;;;;;;;21.30;18.80;;;;;;;-0.14;100.00;97558.12;105039;1274;61246;-74
2022/04/02 05:55:21;;;;;;;21.40;19.10;;;;;;;-0.14;100.00;97558.65;105260;1271;61380;-73
2022/04/02 05:57:48;;;;;;;20.50;18.40;;;;;;;-0.13;100.00;97562.63;105257;1271;76423;-71
2022/04/02 06:00:17;;;;;;;20.10;16.90;;;;;;;-0.11;100.00;97560.60;105269;1271;69311;-73
2022/04/02 06:02:45;;;;;;;18.60;16.60;;;;;;;-0.12;100.00;97566.38;105289;1271;74051;-73
2022/04/02 06:05:13;;;;;;;22.50;19.00;;;;;;;-0.11;100.00;97563.59;105451;1269;61268;-72
2022/04/02 06:07:41;;;;;;;18.50;16.70;;;;;;;-0.07;100.00;97565.15;105348;1271;62270;-73
2022/04/02 06:10:09;;;;;;;21.00;17.60;;;;;;;-0.05;100.00;97567.46;105260;1271;76638;-73
2022/04/02 06:12:36;;;;;;;20.30;18.10;;;;;;;-0.01;100.00;97566.75;105044;1271;69876;-74
2022/04/02 06:15:02;;;;;;;19.50;17.50;;;;;;;0.05;100.00;97569.61;105231;1271;73924;-74
2022/04/02 06:17:29;;;;;;;19.00;17.10;;;;;;;0.08;100.00;97569.30;105030;1271;61409;-73
2022/04/02 06:19:56;;;;;;;19.10;17.20;;;;;;;0.12;100.00;97570.86;105203;1271;61322;-73
2022/04/02 06:22:22;;;;;;;20.60;18.60;;;;;;;0.14;100.00;97572.86;105265;1271;75421;-73
2022/04/02 06:24:49;;;;;;;20.50;17.70;;;;;;;0.18;100.00;97574.23;105312;1271;69862;-72
2022/04/02 06:27:15;;;;;;;21.20;18.70;;;;;;;0.21;100.00;97579.68;105423;1271;74535;-73
2022/04/02 06:29:42;;;;;;;27.40;19.90;;;;;;;0.25;100.00;97582.11;105262;1271;61285;-72
2022/04/02 06:32:09;;;;;;;26.10;20.90;;;;;;;0.30;100.00;97581.37;105260;1271;62307;-73
2022/04/02 06:34:35;;;;;;;23.80;20.60;;;;;;;0.33;100.00;97583.67;105325;1271;75894;-73
2022/04/02 06:37:02;;;;;;;23.60;20.40;;;;;;;0.35;100.00;97585.98;105256;1271;67504;-73
2022/04/02 06:39:29;;;;;;;26.10;22.40;;;;;;;0.34;100.00;97586.23;105333;1271;74781;-72
2022/04/02 06:41:56;;;;;;;27.80;23.10;;;;;;;0.36;100.00;97585.57;105368;1271;61260;-73
2022/04/02 06:44:23;;;;;;;22.80;19.50;;;;;;;0.40;100.00;97585.55;105334;1271;61272;-73
2022/04/02 06:46:50;;;;;;;22.70;20.40;;;;;;;0.43;100.00;97586.48;105425;1270;75548;-73
2022/04/02 06:49:16;;;;;;;23.00;18.90;;;;;;;0.46;100.00;97590.20;105225;1271;70276;-73
2022/04/02 06:51:43;;;;;;;25.30;20.50;;;;;;;0.52;100.00;97586.41;105442;1271;71746;-73
2022/04/02 06:54:10;;;;;;;19.80;17.70;;;;;;;0.52;100.00;97589.87;105451;1271;61278;-71
2022/04/02 06:56:36;;;;;;;21.50;19.20;;;;;;;0.53;100.00;97591.05;105602;1271;61974;-73
2022/04/02 06:59:03;;;;;;;24.30;21.20;;;;;;;0.57;100.00;97587.52;105663;1271;76418;-72
2022/04/02 07:01:30;;;;;;;22.10;19.80;;;;;;;0.58;100.00;97595.00;105832;1271;69327;-72
2022/04/02 07:03:56;;;;;;;26.00;23.20;;;;;;;0.56;100.00;97593.70;105817;1271;74174;-72
2022/04/02 07:06:23;;;;;;;22.40;18.80;;;;;;;0.56;100.00;97597.56;105748;1271;61440;-73
2022/04/02 07:08:50;;;;;;;27.80;22.90;;;;;;;0.59;100.00;97599.30;106066;1270;61327;-74
2022/04/02 07:11:16;;;;;;;23.20;20.30;;;;;;;0.58;100.00;97599.52;106261;1271;74281;-74
2022/04/02 07:13:43;;;;;;;20.00;17.90;;;;;;;0.56;100.00;97594.77;107588;1270;67575;-74
2022/04/02 07:16:09;;;;;;;21.20;18.90;;;;;;;0.52;100.00;97600.56;108439;1270;73551;-75
2022/04/02 07:18:44;;;;;;;22.50;18.00;;;;;;;0.48;100.00;97603.54;108079;1271;61113;-73
2022/04/02 07:21:16;;;;;;;18.80;16.50;;;;;;;0.47;100.00;97605.19;107743;1271;61486;-74
2022/04/02 07:23:45;;;;;;;17.30;15.50;;;;;;;0.45;100.00;97608.76;107945;1270;73807;-73
2022/04/02 07:26:12;;;;;;;17.00;15.20;;;;;;;0.42;100.00;97619.70;105611;1268;70274;-72
2022/04/02 07:28:42;;;;;;;16.70;14.80;;;;;;;0.43;100.00;97618.77;105325;1270;74056;-72
2022/04/02 07:31:08;;;;;;;17.20;15.50;;;;;;;0.41;100.00;97618.70;105228;1271;61464;-73
2022/04/02 07:33:35;;;;;;;19.80;17.30;;;;;;;0.40;100.00;97619.32;105311;1271;61295;-73
2022/04/02 07:36:05;;;;;;;19.40;17.20;;;;;;;0.39;100.00;97622.45;105365;1271;76289;-73
2022/04/02 07:38:43;;;;;;;20.50;18.40;;;;;;;0.39;100.00;97622.45;105382;1271;69675;-74
2022/04/02 07:41:33;;;;;;;20.00;17.90;;;;;;;0.40;100.00;97624.55;105333;1271;74412;-73
2022/04/02 07:44:15;;;;;;;;;;;;;;;0.38;100.00;97624.25;105514;1271;61383;-74
2022/04/02 07:46:43;;;;;;;19.30;17.20;;;;;;;0.34;100.00;97628.65;105327;1271;61269;-71
2022/04/02 07:49:12;;;;;;;20.90;17.90;;;;;;;0.31;100.00;97624.29;105512;1271;77618;-73
2022/04/02 07:51:42;;;;;;;19.80;17.70;;;;;;;0.30;100.00;97632.03;105312;1271;68578;-73
2022/04/02 07:54:12;;;;;;;20.20;17.30;;;;;;;0.31;100.00;97635.27;105449;1271;74393;-73
2022/04/02 07:56:43;;;;;;;17.70;15.90;;;;;;;0.34;100.00;97638.96;105306;1271;61303;-74
2022/04/02 07:59:12;;;;;;;18.20;16.30;;;;;;;0.36;100.00;97641.84;104971;1273;61352;-74
2022/04/02 08:01:39;;;;;;;20.90;17.90;;;;;;;0.41;100.00;97642.66;105215;1274;75213;-74
2022/04/02 08:04:08;;;;;;;21.50;19.00;;;;;;;0.48;100.00;97642.83;105363;1271;70401;-74
2022/04/02 08:06:34;;;;;;;23.20;20.80;;;;;;;0.55;100.00;97646.88;104860;1271;1003418;-73
2022/04/02 08:09:03;;;;;;;25.70;22.00;;;;;;;0.57;100.00;97645.21;106292;1271;61287;-74
2022/04/02 08:11:29;;;;;;;30.60;22.30;;;;;;;0.60;100.00;97648.73;105364;1271;61166;-73
2022/04/02 08:13:57;;;;;;;31.60;23.30;;;;;;;0.62;100.00;97650.92;105292;1271;75795;-73
2022/04/02 08:16:25;;;;;;;27.70;22.90;;;;;;;0.63;100.00;97655.40;105311;1271;70091;-72
2022/04/02 08:18:55;;;;;;;24.40;21.80;;;;;;;0.62;100.00;97654.07;105287;1271;73446;-73
2022/04/02 08:21:22;;;;;;;21.90;19.50;;;;;;;0.59;100.00;97659.98;105447;1271;61349;-74
2022/04/02 08:23:49;;;;;;;22.30;18.40;;;;;;;0.52;100.00;97658.91;105293;1271;61340;-72
2022/04/02 08:26:22;;;;;;;22.70;20.20;;;;;;;0.51;100.00;97661.92;105315;1271;76873;-73
2022/04/02 08:29:02;;;;;;;21.70;17.80;;;;;;;0.51;100.00;97668.95;105611;1269;70108;-72
2022/04/02 08:31:49;;;;;;;21.00;18.80;;;;;;;0.52;100.00;97669.95;105288;1268;73863;-73
2022/04/02 08:34:51;;;;;;;22.60;20.10;;;;;;;0.56;100.00;97675.49;105288;1271;61251;-73
2022/04/02 08:37:27;;;;;;;21.50;19.20;;;;;;;0.64;100.00;97674.42;104852;1277;62036;-72
2022/04/02 08:40:06;;;;;;;20.00;17.80;;;;;;;0.68;100.00;97676.14;104686;1280;74816;-72
2022/04/02 08:43:21;;;;;;;20.90;18.70;;;;;;;0.74;100.00;97682.48;104840;1277;70417;-73
2022/04/02 08:46:03;;;;;;;20.70;18.40;;;;;;;0.79;100.00;97681.73;104793;1277;74429;-73
2022/04/02 08:48:35;;;;;;;19.40;17.50;;;;;;;0.83;100.00;97682.73;103374;1277;1015822;-73
2022/04/02 08:51:20;;;;;;;19.80;17.50;;;;;;;0.81;100.00;97684.23;104708;1277;61265;-73
2022/04/02 08:53:58;;;;;;;21.30;18.70;;;;;;;0.84;100.00;97682.87;104777;1277;76438;-73
2022/04/02 08:56:26;;;;;;;25.50;19.20;;;;;;;0.94;100.00;97681.71;104855;1277;69385;-73
2022/04/02 08:59:04;;;;;;;25.60;20.00;;;;;;;1.03;100.00;97684.75;104687;1278;73626;-72
2022/04/02 09:01:50;;;;;;;23.70;20.10;;;;;;;1.08;100.00;97685.21;104794;1277;61301;-73
2022/04/02 09:04:45;;;;;;;28.10;22.40;;;;;;;1.17;100.00;97688.27;104815;1277;62691;-73
2022/04/02 09:07:42;;;;;;;29.20;21.90;;;;;;;1.19;100.00;97693.74;104831;1277;73916;-73
2022/04/02 09:10:27;;;;;;;25.70;21.60;;;;;;;1.13;100.00;97693.52;104801;1277;69836;-74
2022/04/02 09:13:26;;;;;;;26.40;23.30;;;;;;;1.09;100.00;97697.56;104847;1277;74835;-74
2022/04/02 09:16:06;;;;;;;26.60;23.10;;;;;;;1.09;100.00;97696.84;105226;1268;61415;-73
2022/04/02 09:18:55;;;;;;;33.20;21.60;;;;;;;1.10;100.00;97700.13;105165;1274;61487;-73
2022/04/02 09:21:35;;;;;;;23.90;21.10;;;;;;;1.11;100.00;97699.38;105281;1271;75385;-74
2022/04/02 09:24:13;;;;;;;23.80;21.20;;;;;;;1.16;100.00;97700.38;105280;1271;70260;-74
2022/04/02 09:27:05;;;;;;;24.00;21.50;;;;;;;1.22;100.00;97703.05;105035;1272;73035;-74
2022/04/02 09:29:54;;;;;;;23.90;19.90;;;;;;;1.21;100.00;97709.73;105373;1272;61370;-73
2022/04/02 09:33:09;;;;;;;29.80;23.60;;;;;;;1.14;100.00;97707.63;105303;1271;61263;-74
2022/04/02 09:36:08;;;;;;;26.30;23.10;;;;;;;1.14;100.00;97713.23;104845;1277;76439;-74
2022/04/02 09:38:42;;;;;;;21.20;18.90;;;;;;;1.17;100.00;97710.84;104876;1278;70739;-72
2022/04/02 09:41:24;;;;;;;23.50;19.70;;;;;;;1.15;100.00;97714.75;104877;1277;73366;-73
2022/04/02 09:44:20;;;;;;;28.70;23.20;;;;;;;1.14;100.00;97714.30;105067;1277;61243;-75
2022/04/02 09:47:10;;;;;;;26.20;21.90;;;;;;;1.18;100.00;97717.26;105052;1277;63202;-73
2022/04/02 09:49:48;;;;;;;29.10;21.30;;;;;;;1.24;100.00;97716.06;104879;1277;76340;-72
2022/04/02 09:52:22;;;;;;;24.10;21.50;;;;;;;1.25;100.00;97719.84;104575;1279;68134;-74
2022/04/02 09:55:04;;;;;;;48.10;22.80;;;;;;;1.17;100.00;97719.58;104903;1276;74461;-75
2022/04/02 09:58:02;;;;;;;24.50;20.10;;;;;;;1.08;100.00;97720.55;104632;1281;61333;-76
2022/04/02 10:00:46;;;;;;;32.10;21.60;;;;;;;1.02;100.00;97719.95;104908;1277;61253;-76
2022/04/02 10:03:23;;;;;;;27.20;23.10;;;;;;;1.01;100.00;97724.20;104881;1277;75519;-73
2022/04/02 10:06:18;;;;;;;31.00;23.00;;;;;;;1.04;100.00;97728.75;104911;1278;67679;-74
2022/04/02 10:09:02;;;;;;;24.90;21.70;;;;;;;1.08;100.00;97728.07;105266;1271;74513;-74
2022/04/02 10:11:30;;;;;;;26.50;22.40;;;;;;;1.08;100.00;97727.33;105260;1271;61316;-74
2022/04/02 10:14:01;;;;;;;29.20;23.90;;;;;;;1.11;100.00;97730.69;105361;1270;61841;-73
2022/04/02 10:16:30;;;;;;;26.30;22.20;;;;;;;1.16;100.00;97734.30;105458;1271;74910;-74
2022/04/02 10:18:59;;;;;;;26.20;23.40;;;;;;;1.17;100.00;97740.56;105504;1271;69583;-74
2022/04/02 10:21:35;;;;;;;25.20;21.60;;;;;;;1.11;100.00;97742.58;105316;1271;73498;-73
2022/04/02 10:24:20;;;;;;;24.20;21.00;;;;;;;1.08;100.00;97742.92;105494;1271;61299;-74
2022/04/02 10:26:57;;;;;;;23.70;21.00;;;;;;;1.06;100.00;97744.58;105339;1271;61540;-73
2022/04/02 10:29:52;;;;;;;50.40;25.20;;;;;;;1.04;100.00;97745.73;105350;1271;76374;-73
2022/04/02 10:32:32;;;;;;;32.20;24.40;;;;;;;1.00;100.00;97744.35;105330;1271;70568;-74
2022/04/02 10:35:10;;;;;;;;;;;;;;;0.96;100.00;97747.20;105373;1274;73933;-73
2022/04/02 10:37:50;;;;;;;25.60;21.90;;;;;;;0.95;100.00;97748.46;105232;1271;61261;-73
2022/04/02 10:40:18;;;;;;;25.20;22.50;;;;;;;0.93;100.00;97748.36;105342;1271;62057;-74
2022/04/02 10:43:06;;;;;;;24.90;22.10;;;;;;;0.92;100.00;97755.62;105041;1271;76967;-74
2022/04/02 10:45:41;;;;;;;28.80;24.30;;;;;;;0.91;100.00;97751.98;105126;1271;69116;-73
2022/04/02 10:48:09;;;;;;;30.30;24.60;;;;;;;0.89;100.00;97754.84;105443;1271;73504;-74
2022/04/02 10:50:37;;;;;;;29.40;24.20;;;;;;;0.89;100.00;97754.17;105352;1271;61409;-73
2022/04/02 10:53:05;;;;;;;31.30;26.80;;;;;;;0.85;100.00;97757.85;105419;1271;62489;-73
2022/04/02 10:55:33;;;;;;;30.30;26.10;;;;;;;0.83;100.00;97757.05;105348;1271;77045;-73
2022/04/02 10:58:00;;;;;;;33.50;26.40;;;;;;;0.83;100.00;97753.89;105335;1271;69368;-74
2022/04/02 11:00:29;;;;;;;31.10;26.00;;;;;;;0.80;100.00;97755.62;105302;1271;73891;-73
2022/04/02 11:03:04;;;;;;;30.10;26.30;;;;;;;0.80;100.00;97760.17;105308;1271;61387;-73
2022/04/02 11:05:38;;;;;;;25.80;22.20;;;;;;;0.86;100.00;97760.42;105087;1271;61195;-73
2022/04/02 11:08:10;;;;;;;27.90;22.30;;;;;;;0.87;100.00;97763.50;105330;1271;75455;-74
2022/04/02 11:10:38;;;;;;;29.60;24.50;;;;;;;0.92;100.00;97763.11;105316;1271;70545;-74
2022/04/02 11:13:06;;;;;;;27.30;21.80;;;;;;;0.96;100.00;97766.42;105248;1272;72902;-74
2022/04/02 11:15:40;;;;;;;29.50;23.90;;;;;;;0.93;100.00;97771.42;105373;1271;61295;-73
2022/04/02 11:18:17;;;;;;;31.10;24.90;;;;;;;0.88;100.00;97773.77;105457;1270;61256;-72
2022/04/02 11:20:47;;;;;;;28.20;22.70;;;;;;;0.84;100.00;97774.48;105089;1271;76095;-74
2022/04/02 11:23:17;;;;;;;34.20;25.80;;;;;;;0.84;100.00;97778.17;105425;1271;70707;-72
2022/04/02 11:25:46;;;;;;;34.70;29.00;;;;;;;0.83;100.00;97779.42;105484;1270;74031;-77
2022/04/02 11:28:14;;;;;;;35.30;25.80;;;;;;;0.88;100.00;97777.98;105284;1270;61277;-74
2022/04/02 11:30:49;;;;;;;29.00;24.90;;;;;;;0.89;100.00;97777.91;105297;1271;61750;-75